»·PEaware :: N409BH KELN-KFHR

N409BH :: KELN-KFHR

FLIGHT INFORMATION

Flight Status: Arrived
Operator: Privately registered:
United States
More flights under this callsign
Pilot: Rick S. (2164)
Aircraft: MOONEY M-20 201 202 205 220 ATS MSE
(M20P)
More flights by this aircraft type
Origin: KELN Bowers
United States
Destination: KFHR Friday Harbor
United States
More flights between these airports :: More routes between these airports
Route: +BEEZR V2 SEA V495 JIGEB
File this flight plan on PilotEdge
Remarks:
Altitude:
(Current/Filed)
10,000ft
Speed:
(Current/Filed)
160kts
Departed: 25-Oct-20 07:15 AM
Arrived: 25-Oct-20 08:11 AM
Distance/Time
Traveled:
135nm/0:56
Distance/Time
To Go:
Arrived

Flight Plot

Page will automatically refresh every two minutes.

Flight plan parsing failed; only flown route is shown


Map Options




Map Legend


Flown Route
Filed Route
Departure Airport
Arrival Airport
Navaid (VOR, NDB)
Fix

Horizontal Profiles

Position Reports

Time Latitude Longitude Heading Altitude Ground
Speed
25-Oct-20 07:03 47.029551 -120.532044 0 1728ft 0kts
25-Oct-20 07:04 47.029551 -120.532045 303 1728ft 0kts
25-Oct-20 07:05 47.029551 -120.532045 303 1728ft 0kts
25-Oct-20 07:06 47.029551 -120.532045 303 1728ft 0kts
25-Oct-20 07:07 47.029551 -120.532045 303 1728ft 0kts
25-Oct-20 07:08 47.029551 -120.532045 303 1728ft 0kts
25-Oct-20 07:09 47.029551 -120.532045 303 1728ft 0kts
25-Oct-20 07:10 47.030189 -120.531491 79 1731ft 12kts
25-Oct-20 07:11 47.030418 -120.523650 89 1747ft 17kts
25-Oct-20 07:12 47.030405 -120.523305 94 1747ft 0kts
25-Oct-20 07:13 47.030405 -120.523305 94 1747ft 0kts
25-Oct-20 07:14 47.030411 -120.522591 83 1748ft 16kts
25-Oct-20 07:15 47.043783 -120.542933 321 2307ft 94kts
25-Oct-20 07:16 47.065527 -120.564567 286 3363ft 123kts
25-Oct-20 07:17 47.073940 -120.617371 289 4382ft 138kts
25-Oct-20 07:17 47.082011 -120.663173 289 5328ft 135kts
25-Oct-20 07:19 47.092810 -120.722230 292 6695ft 123kts
25-Oct-20 07:19 47.100544 -120.764319 292 7539ft 131kts
25-Oct-20 07:20 47.110227 -120.816612 292 8548ft 132kts
25-Oct-20 07:21 47.120070 -120.870086 292 9434ft 141kts
25-Oct-20 07:22 47.132141 -120.927843 295 9943ft 162kts
25-Oct-20 07:23 47.147578 -120.996200 294 9943ft 185kts
25-Oct-20 07:24 47.164042 -121.069231 294 9943ft 191kts
25-Oct-20 07:25 47.180800 -121.143992 294 9943ft 192kts
25-Oct-20 07:26 47.197570 -121.218812 294 9944ft 193kts
25-Oct-20 07:27 47.214327 -121.293709 294 9943ft 192kts
25-Oct-20 07:28 47.230982 -121.368611 294 9944ft 192kts
25-Oct-20 07:29 47.247604 -121.443609 294 9943ft 193kts
25-Oct-20 07:30 47.264328 -121.519074 294 9943ft 192kts
25-Oct-20 07:31 47.280764 -121.594036 294 9943ft 191kts
25-Oct-20 07:32 47.296962 -121.667862 293 10023ft 191kts
25-Oct-20 07:33 47.313448 -121.743089 293 10024ft 192kts
25-Oct-20 07:34 47.329862 -121.818562 293 10024ft 193kts
25-Oct-20 07:35 47.346363 -121.894539 293 10024ft 193kts
25-Oct-20 07:36 47.362702 -121.970082 293 10013ft 194kts
25-Oct-20 07:37 47.379171 -122.046579 293 9997ft 195kts
25-Oct-20 07:38 47.395604 -122.123322 293 9994ft 196kts
25-Oct-20 07:39 47.412121 -122.200397 293 9997ft 196kts
25-Oct-20 07:40 47.428549 -122.277597 293 10004ft 197kts
25-Oct-20 07:41 47.463109 -122.332034 332 10020ft 181kts
25-Oct-20 07:42 47.505739 -122.371590 334 10044ft 179kts
25-Oct-20 07:43 47.548585 -122.409783 335 10052ft 179kts
25-Oct-20 07:44 47.591673 -122.448221 335 10058ft 182kts
25-Oct-20 07:45 47.636421 -122.487875 334 9645ft 194kts
25-Oct-20 07:46 47.682935 -122.529426 333 9048ft 194kts
25-Oct-20 07:47 47.727901 -122.569585 334 8446ft 183kts
25-Oct-20 07:48 47.771042 -122.608113 333 7854ft 181kts
25-Oct-20 07:49 47.814019 -122.646757 333 7262ft 180kts
25-Oct-20 07:50 47.856888 -122.685372 332 6658ft 180kts
25-Oct-20 07:51 47.899719 -122.723905 332 6052ft 178kts
25-Oct-20 07:52 47.940219 -122.760499 333 6043ft 158kts
25-Oct-20 07:53 47.979936 -122.796337 333 6053ft 174kts
25-Oct-20 07:54 48.021762 -122.834144 331 6052ft 177kts
25-Oct-20 07:55 48.064191 -122.872722 332 6052ft 178kts
25-Oct-20 07:56 48.106614 -122.911219 331 6051ft 178kts
25-Oct-20 07:57 48.149172 -122.950181 332 6050ft 179kts
25-Oct-20 07:58 48.191488 -122.988694 332 6138ft 174kts
25-Oct-20 07:59 48.235809 -123.023327 354 5779ft 183kts
25-Oct-20 08:00 48.283045 -123.056705 334 5273ft 191kts
25-Oct-20 08:01 48.331478 -123.069582 357 4763ft 154kts
25-Oct-20 08:02 48.373365 -123.076254 357 4262ft 151kts
25-Oct-20 08:03 48.415192 -123.082487 357 3762ft 150kts
25-Oct-20 08:04 48.456845 -123.087825 7 3259ft 149kts
25-Oct-20 08:05 48.494419 -123.065469 359 2751ft 147kts
25-Oct-20 08:06 48.535759 -123.070120 357 2152ft 152kts
25-Oct-20 08:07 48.569013 -123.054532 80 1341ft 146kts
25-Oct-20 08:08 48.554217 -123.022814 196 885ft 105kts
25-Oct-20 08:09 48.527186 -123.024739 179 155ft 84kts
25-Oct-20 08:10 48.517928 -123.024677 359 87ft 14kts
25-Oct-20 08:11 48.524625 -123.025162 356 106ft 24kts
25-Oct-20 08:12 48.526608 -123.026430 354 119ft 0kts

Navigation Log

Ident Type
Flight plan parsing failed, navigation log unavailable